Time;durP1;ratioP1;P1;durP2;ratioP2;P2;SDS_P1;SDS_P2;PMS_P1;PMS_P2;Temp;Humidity;BMP_temperature;BMP_pressure;BME280_temperature;BME280_humidity;BME280_pressure;Samples;Min_cycle;Max_cycle;Signal;HPM_P1;HPM_P2
2023/01/20 00:02:10;;;;;;;48.13;26.07;;;;;;;1.16;100.00;99666.09;5003438;28;20475;-78
2023/01/20 00:04:37;;;;;;;52.90;28.10;;;;;;;1.22;100.00;99660.44;5003319;28;20483;-77
2023/01/20 00:07:05;;;;;;;56.73;27.73;;;;;;;1.10;100.00;99668.16;5003362;28;20520;-78
2023/01/20 00:09:32;;;;;;;42.93;26.27;;;;;;;1.10;100.00;99665.53;5003910;28;20464;-79
2023/01/20 00:11:58;;;;;;;53.43;27.20;;;;;;;1.05;100.00;99670.22;5003297;28;20519;-79
2023/01/20 00:14:26;;;;;;;48.47;25.10;;;;;;;1.04;100.00;99670.31;5003765;28;20548;-77
2023/01/20 00:16:53;;;;;;;48.83;25.87;;;;;;;1.02;100.00;99678.28;5003292;28;20488;-77
2023/01/20 00:19:19;;;;;;;46.47;27.97;;;;;;;0.96;100.00;99680.50;5003017;28;20490;-78
2023/01/20 00:21:46;;;;;;;47.93;28.20;;;;;;;1.01;100.00;99684.53;5002578;28;20541;-78
2023/01/20 00:24:14;;;;;;;43.90;26.83;;;;;;;1.02;100.00;99683.56;5003815;28;20484;-76
2023/01/20 00:26:40;;;;;;;42.33;25.27;;;;;;;1.07;100.00;99689.41;5003140;28;20551;-77
2023/01/20 00:29:08;;;;;;;44.40;22.60;;;;;;;0.89;100.00;99691.38;4984610;28;20576;-77
2023/01/20 00:31:35;;;;;;;38.00;22.67;;;;;;;1.00;100.00;99689.88;4998729;28;20766;-78
2023/01/20 00:34:02;;;;;;;39.10;23.83;;;;;;;1.14;100.00;99692.50;4993984;28;20457;-78
2023/01/20 00:36:31;;;;;;;45.03;24.90;;;;;;;1.09;100.00;99695.44;4987349;28;20520;-75
2023/01/20 00:38:57;;;;;;;40.83;24.20;;;;;;;1.02;100.00;99701.16;4986431;28;20551;-77
2023/01/20 00:41:25;;;;;;;41.50;23.90;;;;;;;0.94;100.00;99705.09;4998960;28;21092;-78
2023/01/20 00:43:52;;;;;;;49.23;25.27;;;;;;;1.17;100.00;99697.59;4984194;28;20799;-75
2023/01/20 00:46:18;;;;;;;39.03;23.40;;;;;;;1.27;100.00;99695.25;4999082;28;20544;-77
2023/01/20 00:48:45;;;;;;;48.43;26.90;;;;;;;1.28;100.00;99702.19;5002991;28;20543;-75
2023/01/20 00:51:12;;;;;;;45.07;25.70;;;;;;;1.31;100.00;99700.19;5001755;28;20484;-76
2023/01/20 00:53:38;;;;;;;48.90;27.63;;;;;;;1.36;100.00;99699.94;4998891;28;20532;-78
2023/01/20 00:56:06;;;;;;;45.10;26.37;;;;;;;1.37;100.00;99698.13;4995084;28;20485;-78
2023/01/20 00:58:34;;;;;;;52.60;26.70;;;;;;;1.34;100.00;99704.44;5002148;28;20464;-79
2023/01/20 01:01:00;;;;;;;44.70;27.77;;;;;;;1.48;100.00;99698.31;4990569;28;20505;-79
2023/01/20 01:03:27;;;;;;;50.90;27.23;;;;;;;1.53;100.00;99698.88;4987968;28;20503;-79
2023/01/20 01:06:05;;;;;;;49.27;26.30;;;;;;;1.55;100.00;99698.78;4990754;28;20483;-79
2023/01/20 01:08:33;;;;;;;46.97;27.60;;;;;;;1.47;100.00;99689.56;5001489;28;20467;-79
2023/01/20 01:10:59;;;;;;;49.33;27.20;;;;;;;1.46;100.00;99700.22;4982937;28;20468;-78
2023/01/20 01:13:26;;;;;;;51.50;26.27;;;;;;;1.47;100.00;99705.34;4984391;28;20544;-79
2023/01/20 01:15:54;;;;;;;44.23;26.40;;;;;;;1.43;100.00;99700.41;4991877;28;20580;-79
2023/01/20 01:18:20;;;;;;;45.97;26.27;;;;;;;1.48;100.00;99703.59;5002307;28;20527;-78
2023/01/20 01:20:47;;;;;;;45.60;24.40;;;;;;;1.39;100.00;99701.50;5001207;28;20482;-77
2023/01/20 01:23:14;;;;;;;43.83;24.27;;;;;;;1.47;100.00;99712.41;5001547;28;20511;-77
2023/01/20 01:25:40;;;;;;;42.70;25.40;;;;;;;1.56;100.00;99713.63;4986672;28;21044;-76
2023/01/20 01:28:07;;;;;;;52.53;27.87;;;;;;;1.57;100.00;99716.16;4984375;28;21044;-79
2023/01/20 01:30:34;;;;;;;42.77;25.80;;;;;;;1.55;100.00;99718.06;4984720;28;20480;-78
2023/01/20 01:33:02;;;;;;;42.03;24.50;;;;;;;1.49;100.00;99718.44;4983823;28;20492;-79
2023/01/20 01:35:28;;;;;;;50.87;24.93;;;;;;;1.52;100.00;99726.16;4984947;28;20504;-79
2023/01/20 01:37:55;;;;;;;39.50;24.93;;;;;;;1.48;100.00;99736.03;4991052;28;20470;-77
2023/01/20 01:40:21;;;;;;;51.83;25.13;;;;;;;1.48;100.00;99733.41;4982765;28;20464;-77
2023/01/20 01:42:48;;;;;;;42.67;24.37;;;;;;;1.54;100.00;99744.50;4994258;28;20491;-77
2023/01/20 01:45:22;;;;;;;45.27;26.53;;;;;;;1.52;100.00;99743.75;4997714;28;20539;-76
2023/01/20 01:47:52;;;;;;;51.17;26.33;;;;;;;1.48;100.00;99743.09;5002668;28;20481;-77
2023/01/20 01:50:22;;;;;;;52.07;28.20;;;;;;;1.46;100.00;99745.00;5001707;28;20535;-76
2023/01/20 01:52:51;;;;;;;46.00;26.40;;;;;;;1.50;100.00;99739.41;5001860;28;20511;-76
2023/01/20 01:55:19;;;;;;;53.67;26.40;;;;;;;1.48;100.00;99743.94;5001209;28;20512;-75
2023/01/20 01:57:46;;;;;;;48.10;25.20;;;;;;;1.48;100.00;99743.94;5002886;28;20467;-75
2023/01/20 02:00:14;;;;;;;46.17;25.43;;;;;;;1.38;100.00;99748.09;5001474;28;20480;-75
2023/01/20 02:02:42;;;;;;;48.47;26.07;;;;;;;1.35;100.00;99750.91;5002336;28;20452;-75
2023/01/20 02:05:10;;;;;;;46.50;26.30;;;;;;;1.39;100.00;99755.06;5001715;28;20452;-75
2023/01/20 02:07:38;;;;;;;52.60;26.03;;;;;;;1.45;100.00;99752.03;5002645;28;20483;-75
2023/01/20 02:10:05;;;;;;;54.90;29.30;;;;;;;1.48;100.00;99762.38;5002349;28;20492;-76
2023/01/20 02:12:32;;;;;;;48.93;27.43;;;;;;;1.48;100.00;99758.91;5001516;28;20564;-76
2023/01/20 02:14:59;;;;;;;44.47;25.33;;;;;;;1.42;100.00;99760.09;5002415;28;20462;-76
2023/01/20 02:17:28;;;;;;;45.50;26.97;;;;;;;1.44;100.00;99760.03;5005113;28;20516;-76
2023/01/20 02:20:07;;;;;;;50.43;26.73;;;;;;;1.35;100.00;99766.69;5005394;28;20501;-76
2023/01/20 02:22:40;;;;;;;50.50;26.10;;;;;;;1.47;100.00;99771.22;5005278;28;20458;-76
2023/01/20 02:25:27;;;;;;;49.80;26.43;;;;;;;1.47;100.00;99768.56;5005208;28;20524;-75
2023/01/20 02:28:12;;;;;;;47.93;28.60;;;;;;;1.37;100.00;99772.75;5006122;28;20511;-77
2023/01/20 02:30:46;;;;;;;49.67;28.50;;;;;;;1.39;100.00;99772.63;5005150;28;20495;-76
2023/01/20 02:33:16;;;;;;;50.90;28.67;;;;;;;1.39;100.00;99777.88;5005348;28;20507;-76
2023/01/20 02:35:44;;;;;;;61.53;28.10;;;;;;;1.26;100.00;99793.59;5004407;28;20551;-78
2023/01/20 02:38:16;;;;;;;48.87;26.10;;;;;;;1.47;100.00;99784.38;5005605;28;20499;-76
2023/01/20 02:40:48;;;;;;;53.47;29.20;;;;;;;1.30;100.00;99788.06;5004551;28;20525;-75
2023/01/20 02:43:19;;;;;;;45.00;25.60;;;;;;;1.39;100.00;99791.94;5005568;28;20524;-76
2023/01/20 02:45:48;;;;;;;53.17;29.30;;;;;;;1.36;100.00;99789.47;5004889;28;20916;-76
2023/01/20 02:48:22;;;;;;;52.27;27.50;;;;;;;1.33;100.00;99788.81;5005340;28;20471;-76
2023/01/20 02:50:54;;;;;;;47.73;27.60;;;;;;;1.28;100.00;99789.09;5002463;28;20532;-76
2023/01/20 02:53:22;;;;;;;48.50;28.10;;;;;;;1.28;100.00;99789.09;5004831;28;20542;-76
2023/01/20 02:55:50;;;;;;;48.17;26.93;;;;;;;1.36;100.00;99802.66;4988667;28;20520;-75
2023/01/20 02:58:21;;;;;;;54.63;27.97;;;;;;;1.30;100.00;99797.72;4988125;28;20444;-75
2023/01/20 03:00:50;;;;;;;59.07;30.50;;;;;;;1.30;100.00;99811.78;4995814;28;20526;-75
2023/01/20 03:03:22;;;;;;;50.67;30.13;;;;;;;1.46;100.00;99806.41;5000626;28;20511;-75
2023/01/20 03:05:50;;;;;;;45.87;27.60;;;;;;;1.21;100.00;99812.31;4997681;28;20496;-75
2023/01/20 03:08:18;;;;;;;57.70;29.40;;;;;;;1.35;100.00;99806.22;4996429;28;20457;-75
2023/01/20 03:10:46;;;;;;;53.13;29.00;;;;;;;1.37;100.00;99808.75;5004298;28;20472;-76
2023/01/20 03:13:16;;;;;;;51.90;27.73;;;;;;;1.32;100.00;99819.59;5002610;28;20484;-76
2023/01/20 03:15:49;;;;;;;48.73;27.73;;;;;;;1.21;100.00;99811.47;5003871;28;20562;-76
2023/01/20 03:18:15;;;;;;;52.47;30.57;;;;;;;1.20;100.00;99815.03;5004766;28;20475;-76
2023/01/20 03:20:43;;;;;;;53.87;31.83;;;;;;;1.25;100.00;99815.59;5003972;28;20519;-76
2023/01/20 03:23:10;;;;;;;56.00;29.70;;;;;;;1.24;100.00;99817.38;5004197;28;20508;-75
2023/01/20 03:25:38;;;;;;;49.00;28.17;;;;;;;1.15;100.00;99811.81;4987470;28;21060;-77
2023/01/20 03:28:04;;;;;;;53.57;28.73;;;;;;;0.96;100.00;99822.63;5004236;28;20463;-77
2023/01/20 03:30:31;;;;;;;51.87;30.50;;;;;;;1.04;100.00;99823.84;5003887;28;21089;-77
2023/01/20 03:32:58;;;;;;;58.33;30.03;;;;;;;1.11;100.00;99821.69;5004580;28;20558;-76
2023/01/20 03:35:25;;;;;;;53.60;29.73;;;;;;;1.19;100.00;99824.72;4995371;28;20540;-75
2023/01/20 03:37:52;;;;;;;61.90;29.73;;;;;;;1.17;100.00;99823.13;4999890;28;20548;-75
2023/01/20 03:40:19;;;;;;;51.50;31.20;;;;;;;1.25;100.00;99823.50;4999145;28;20520;-74
2023/01/20 03:42:54;;;;;;;59.77;31.30;;;;;;;1.22;100.00;99834.25;5000378;28;20516;-75
2023/01/20 03:45:24;;;;;;;53.53;30.07;;;;;;;1.28;100.00;99836.50;4992729;28;20445;-74
2023/01/20 03:47:56;;;;;;;56.77;31.00;;;;;;;1.35;100.00;99837.81;4995763;28;20476;-76
2023/01/20 03:50:32;;;;;;;63.40;32.00;;;;;;;1.36;100.00;99843.94;5002843;28;20484;-75
2023/01/20 03:53:06;;;;;;;51.40;29.37;;;;;;;1.34;100.00;99848.44;5003326;28;20507;-75
2023/01/20 03:55:36;;;;;;;53.60;30.13;;;;;;;1.25;100.00;99844.56;5003421;28;20460;-75
2023/01/20 03:58:06;;;;;;;52.30;29.37;;;;;;;1.36;100.00;99851.84;5004499;28;20436;-75
2023/01/20 04:00:36;;;;;;;44.00;27.23;;;;;;;1.28;100.00;99842.59;5003234;28;20500;-75
2023/01/20 04:03:06;;;;;;;44.70;28.20;;;;;;;1.01;100.00;99845.09;5003485;28;20461;-75
2023/01/20 04:05:33;;;;;;;50.90;27.77;;;;;;;1.21;100.00;99843.06;4988684;28;20492;-75
2023/01/20 04:08:03;;;;;;;47.07;27.30;;;;;;;1.17;100.00;99852.94;5002521;28;20466;-75
2023/01/20 04:10:31;;;;;;;51.57;28.13;;;;;;;1.16;100.00;99853.00;5001951;28;20514;-75
2023/01/20 04:12:58;;;;;;;45.70;26.20;;;;;;;1.23;100.00;99854.34;5000625;28;20507;-75
2023/01/20 04:15:25;;;;;;;47.90;29.10;;;;;;;1.28;100.00;99857.56;4985900;28;20457;-75
2023/01/20 04:17:52;;;;;;;52.90;27.50;;;;;;;1.35;100.00;99858.88;4985210;28;20536;-75
2023/01/20 04:20:19;;;;;;;46.10;26.73;;;;;;;1.33;100.00;99860.75;4987276;28;20451;-75
2023/01/20 04:22:48;;;;;;;46.60;27.43;;;;;;;1.22;100.00;99861.41;5003295;28;20452;-75
2023/01/20 04:25:22;;;;;;;45.73;27.70;;;;;;;1.24;100.00;99856.06;4986451;28;20519;-75
2023/01/20 04:27:49;;;;;;;54.53;29.70;;;;;;;1.18;100.00;99859.91;4994792;28;20502;-75
2023/01/20 04:30:15;;;;;;;54.80;28.20;;;;;;;1.39;100.00;99868.31;5002531;28;20473;-75
2023/01/20 04:32:42;;;;;;;51.03;27.80;;;;;;;1.38;100.00;99863.13;5003786;28;20452;-76
2023/01/20 04:35:10;;;;;;;48.37;27.53;;;;;;;1.41;100.00;99870.84;4989441;28;20906;-75
2023/01/20 04:37:36;;;;;;;51.47;28.43;;;;;;;1.21;100.00;99864.97;4989413;28;20508;-75
2023/01/20 04:40:03;;;;;;;56.63;30.70;;;;;;;1.12;100.00;99865.50;5002618;28;20538;-75
2023/01/20 04:42:31;;;;;;;56.10;29.60;;;;;;;1.16;100.00;99867.03;5002345;28;20546;-75
2023/01/20 04:44:58;;;;;;;50.90;28.03;;;;;;;1.12;100.00;99863.72;5003277;28;20520;-75
2023/01/20 04:47:24;;;;;;;54.10;29.27;;;;;;;1.01;100.00;99868.78;5002807;28;20551;-76
2023/01/20 04:49:51;;;;;;;48.10;27.60;;;;;;;1.00;100.00;99867.06;5002548;28;20512;-75
2023/01/20 04:52:18;;;;;;;46.30;26.63;;;;;;;1.06;100.00;99873.75;5001667;28;20518;-75
2023/01/20 04:54:44;;;;;;;50.70;27.63;;;;;;;1.13;100.00;99875.97;5003185;28;20487;-75
2023/01/20 04:57:11;;;;;;;47.93;26.37;;;;;;;1.14;100.00;99871.53;5002408;28;21004;-75
2023/01/20 04:59:39;;;;;;;51.33;28.90;;;;;;;1.16;100.00;99884.63;5002963;28;20483;-76
2023/01/20 05:02:05;;;;;;;55.73;29.17;;;;;;;1.21;100.00;99872.03;4996025;28;21051;-76
2023/01/20 05:04:32;;;;;;;49.50;27.93;;;;;;;1.25;100.00;99876.16;4990528;28;20461;-76
2023/01/20 05:06:58;;;;;;;57.93;29.33;;;;;;;1.11;100.00;99874.34;5000706;28;20472;-76
2023/01/20 05:09:25;;;;;;;41.43;26.47;;;;;;;1.14;100.00;99876.81;5002978;28;21751;-76
2023/01/20 05:11:51;;;;;;;44.87;25.90;;;;;;;1.18;100.00;99882.72;4994592;28;20786;-76
2023/01/20 05:14:18;;;;;;;47.33;26.37;;;;;;;1.11;100.00;99884.88;5003262;28;20551;-76
2023/01/20 05:16:46;;;;;;;57.37;28.77;;;;;;;1.05;100.00;99886.09;4990541;28;20954;-75
2023/01/20 05:19:13;;;;;;;49.10;26.77;;;;;;;1.02;100.00;99883.63;5000741;28;20440;-75
2023/01/20 05:21:41;;;;;;;56.03;27.93;;;;;;;1.16;100.00;99890.72;4996786;28;20480;-76
2023/01/20 05:24:08;;;;;;;51.70;27.97;;;;;;;1.27;100.00;99887.47;4992136;28;20448;-77
2023/01/20 05:26:35;;;;;;;48.63;27.00;;;;;;;1.23;100.00;99896.47;4996907;28;20925;-76
2023/01/20 05:29:02;;;;;;;48.53;26.23;;;;;;;1.23;100.00;99893.84;4997451;28;20484;-76
2023/01/20 05:31:29;;;;;;;52.10;27.57;;;;;;;1.28;100.00;99902.31;4998760;28;20486;-76
2023/01/20 05:33:57;;;;;;;51.20;27.73;;;;;;;1.23;100.00;99897.34;4995945;28;20492;-76
2023/01/20 05:36:23;;;;;;;48.33;26.43;;;;;;;1.12;100.00;99897.94;4999179;28;20977;-73
2023/01/20 05:38:50;;;;;;;48.70;26.63;;;;;;;1.08;100.00;99898.25;4995351;28;20488;-75
2023/01/20 05:41:17;;;;;;;46.50;26.60;;;;;;;0.97;100.00;99905.88;4990795;28;20512;-75
2023/01/20 05:43:43;;;;;;;43.60;27.67;;;;;;;1.02;100.00;99907.31;4982826;28;20476;-75
2023/01/20 05:46:10;;;;;;;49.30;27.00;;;;;;;1.10;100.00;99904.25;4993891;28;20547;-74
2023/01/20 05:48:36;;;;;;;43.97;26.40;;;;;;;1.20;100.00;99905.41;5000166;28;20468;-73
2023/01/20 05:51:05;;;;;;;41.27;24.20;;;;;;;1.20;100.00;99917.72;4992711;28;20475;-73
2023/01/20 05:53:32;;;;;;;45.23;25.77;;;;;;;1.13;100.00;99914.63;5004348;28;20488;-74
2023/01/20 05:56:00;;;;;;;48.83;26.27;;;;;;;1.24;100.00;99908.72;4997707;28;20560;-73
2023/01/20 05:58:27;;;;;;;43.50;25.97;;;;;;;1.09;100.00;99919.22;4990022;28;20988;-73
2023/01/20 06:00:53;;;;;;;42.77;25.80;;;;;;;1.20;100.00;99923.84;4996067;28;21003;-76
2023/01/20 06:03:20;;;;;;;41.30;25.07;;;;;;;1.21;100.00;99927.31;5000457;28;20498;-78
2023/01/20 06:05:48;;;;;;;42.47;25.60;;;;;;;1.11;100.00;99929.63;4999240;28;20506;-78
2023/01/20 06:08:16;;;;;;;41.73;23.10;;;;;;;1.02;100.00;99933.63;4999111;28;20785;-79
2023/01/20 06:10:42;;;;;;;49.00;26.20;;;;;;;1.13;100.00;99939.16;4991498;28;20495;-78
2023/01/20 06:13:09;;;;;;;47.27;26.60;;;;;;;1.23;100.00;99928.94;5004450;28;20460;-79
2023/01/20 06:15:36;;;;;;;46.30;26.90;;;;;;;1.34;100.00;99923.06;4999042;28;20472;-78
2023/01/20 06:18:02;;;;;;;47.77;26.93;;;;;;;1.27;100.00;99927.81;4996407;28;20579;-77
2023/01/20 06:20:29;;;;;;;54.50;24.90;;;;;;;1.02;100.00;99938.06;4999876;28;20475;-78
2023/01/20 06:22:56;;;;;;;47.50;24.77;;;;;;;1.10;100.00;99935.84;5000024;28;20460;-78
2023/01/20 06:25:24;;;;;;;46.70;26.07;;;;;;;1.21;100.00;99933.44;5004580;28;20436;-78
2023/01/20 06:27:50;;;;;;;46.30;26.50;;;;;;;1.14;100.00;99940.00;5005477;28;20439;-77
2023/01/20 06:30:17;;;;;;;42.83;26.00;;;;;;;1.09;100.00;99936.78;5004541;28;20587;-77
2023/01/20 06:32:46;;;;;;;46.50;26.70;;;;;;;1.22;100.00;99950.09;5005017;28;20476;-77
2023/01/20 06:35:13;;;;;;;51.10;25.50;;;;;;;1.09;100.00;99965.72;5003502;28;20455;-77
2023/01/20 06:37:40;;;;;;;44.07;24.80;;;;;;;1.22;100.00;99958.00;5004875;28;20500;-76
2023/01/20 06:40:07;;;;;;;46.33;26.53;;;;;;;1.18;100.00;99953.81;5004539;28;20483;-77
2023/01/20 06:42:35;;;;;;;49.33;26.90;;;;;;;1.29;100.00;99964.59;4983466;28;20553;-76
2023/01/20 06:45:02;;;;;;;44.27;25.63;;;;;;;1.27;100.00;99958.59;4984493;28;20489;-76
2023/01/20 06:47:28;;;;;;;41.40;25.23;;;;;;;1.34;100.00;99966.94;5003928;28;20563;-77
2023/01/20 06:49:55;;;;;;;44.50;25.70;;;;;;;1.30;100.00;99971.56;5003478;28;20480;-77
2023/01/20 06:52:21;;;;;;;47.73;27.20;;;;;;;1.41;100.00;99974.44;4997162;28;20584;-77
2023/01/20 06:54:48;;;;;;;43.13;25.03;;;;;;;1.31;100.00;99975.91;5000413;28;20521;-75
2023/01/20 06:57:15;;;;;;;51.63;26.03;;;;;;;1.22;100.00;99981.69;5000806;28;20504;-77
2023/01/20 06:59:43;;;;;;;48.70;27.07;;;;;;;1.26;100.00;99977.94;5003790;28;20452;-77
2023/01/20 07:02:09;;;;;;;49.13;26.60;;;;;;;1.26;100.00;99981.41;4995153;28;20522;-77
2023/01/20 07:04:39;;;;;;;46.57;25.70;;;;;;;1.18;100.00;99988.06;5001170;28;20453;-77
2023/01/20 07:07:05;;;;;;;47.87;24.80;;;;;;;1.23;100.00;99989.50;4993382;28;20484;-77
2023/01/20 07:09:32;;;;;;;52.37;26.43;;;;;;;1.37;100.00;99998.38;5004509;28;20483;-77
2023/01/20 07:11:59;;;;;;;45.40;26.63;;;;;;;1.30;100.00;99992.63;5002838;28;20508;-77
2023/01/20 07:14:25;;;;;;;50.90;26.20;;;;;;;1.23;100.00;99997.41;5001491;28;20440;-78
2023/01/20 07:16:53;;;;;;;54.10;28.07;;;;;;;1.28;100.00;100000.59;4996714;28;20531;-76
2023/01/20 07:19:20;;;;;;;45.60;25.00;;;;;;;1.31;100.00;100004.88;5001647;28;20742;-76
2023/01/20 07:21:46;;;;;;;47.80;26.80;;;;;;;1.26;100.00;100006.91;4982669;28;20910;-76
2023/01/20 07:24:13;;;;;;;51.87;26.50;;;;;;;1.15;100.00;100009.28;4993991;28;20936;-76
2023/01/20 07:26:40;;;;;;;54.90;26.90;;;;;;;1.19;100.00;100009.03;5001158;28;20519;-77
2023/01/20 07:29:06;;;;;;;49.17;26.70;;;;;;;1.28;100.00;100007.66;5002467;28;20446;-76
2023/01/20 07:31:33;;;;;;;47.50;25.63;;;;;;;1.35;100.00;100009.00;4992081;28;20567;-75
2023/01/20 07:34:01;;;;;;;48.57;26.70;;;;;;;1.37;100.00;100014.19;4995623;28;20454;-76
2023/01/20 07:36:28;;;;;;;48.63;26.30;;;;;;;1.23;100.00;100025.50;4991529;28;20492;-76
2023/01/20 07:38:55;;;;;;;53.40;26.80;;;;;;;1.19;100.00;100021.38;4994027;28;20838;-77
2023/01/20 07:41:22;;;;;;;41.97;25.30;;;;;;;1.19;100.00;100030.09;4987138;28;20528;-75
2023/01/20 07:43:50;;;;;;;52.57;27.63;;;;;;;1.28;100.00;100037.47;4993218;28;20460;-75
2023/01/20 07:46:16;;;;;;;51.80;28.53;;;;;;;1.22;100.00;100045.75;4990225;28;20492;-75
2023/01/20 07:48:43;;;;;;;52.93;25.93;;;;;;;1.26;100.00;100043.78;4992769;28;20492;-75
2023/01/20 07:51:13;;;;;;;48.47;26.80;;;;;;;1.22;100.00;100053.63;4991344;28;20702;-77
2023/01/20 07:53:40;;;;;;;47.53;25.90;;;;;;;1.43;100.00;100058.63;4996285;28;20498;-76
2023/01/20 07:56:10;;;;;;;52.03;28.90;;;;;;;1.53;100.00;100059.81;4990061;28;20526;-76
2023/01/20 07:58:37;;;;;;;51.50;27.53;;;;;;;1.46;100.00;100058.47;4995567;28;20546;-76
2023/01/20 08:01:08;;;;;;;53.30;29.70;;;;;;;1.50;100.00;100071.38;4990609;28;20500;-77
2023/01/20 08:03:34;;;;;;;59.23;28.80;;;;;;;1.47;100.00;100066.25;4990000;28;20445;-76
2023/01/20 08:06:02;;;;;;;51.87;27.13;;;;;;;1.55;100.00;100076.38;4993083;28;20535;-78
2023/01/20 08:08:30;;;;;;;45.90;27.27;;;;;;;1.62;100.00;100080.34;4995864;28;20463;-77
2023/01/20 08:10:57;;;;;;;49.77;26.23;;;;;;;1.66;100.00;100081.88;4988242;28;20473;-77
2023/01/20 08:13:24;;;;;;;55.13;27.07;;;;;;;1.60;100.00;100082.25;4992465;28;20455;-78
2023/01/20 08:15:51;;;;;;;46.70;26.93;;;;;;;1.61;100.00;100091.81;4994840;28;20563;-79
2023/01/20 08:18:17;;;;;;;49.30;27.50;;;;;;;1.65;100.00;100098.63;4996531;28;20539;-79
2023/01/20 08:20:44;;;;;;;52.67;29.00;;;;;;;1.59;100.00;100098.97;4991540;28;20529;-78
2023/01/20 08:23:11;;;;;;;47.80;27.03;;;;;;;1.67;100.00;100096.75;4993000;28;20487;-81
2023/01/20 08:25:39;;;;;;;47.87;27.60;;;;;;;1.63;100.00;100105.78;4989984;28;20476;-78
2023/01/20 08:28:05;;;;;;;45.80;26.40;;;;;;;1.53;100.00;100107.25;4995543;28;21055;-78
2023/01/20 08:30:32;;;;;;;53.40;27.13;;;;;;;1.79;100.00;100112.78;4989944;28;20503;-79
2023/01/20 08:32:59;;;;;;;54.03;27.87;;;;;;;1.81;100.00;100109.16;4993876;28;20448;-79
2023/01/20 08:35:26;;;;;;;48.80;26.47;;;;;;;1.88;100.00;100107.84;4995982;28;20495;-79
2023/01/20 08:37:52;;;;;;;44.40;25.47;;;;;;;1.83;100.00;100112.53;4992057;28;20536;-79
2023/01/20 08:40:20;;;;;;;50.40;27.00;;;;;;;1.84;100.00;100121.28;4989517;28;20881;-78
2023/01/20 08:42:48;;;;;;;43.33;25.77;;;;;;;1.71;100.00;100126.41;4995886;28;20471;-78
2023/01/20 08:45:14;;;;;;;44.47;28.50;;;;;;;1.76;100.00;100128.81;4990870;28;20453;-76
2023/01/20 08:47:44;;;;;;;49.03;25.60;;;;;;;1.79;100.00;100129.47;4994342;28;20458;-77
2023/01/20 08:50:13;;;;;;;45.47;27.60;;;;;;;1.94;100.00;100130.38;4992596;28;20961;-77
2023/01/20 08:52:40;;;;;;;47.10;26.00;;;;;;;1.97;100.00;100127.56;4990114;28;20532;-77
2023/01/20 08:55:07;;;;;;;43.73;24.97;;;;;;;2.08;100.00;100137.47;4990557;28;20456;-76
2023/01/20 08:57:33;;;;;;;45.23;25.20;;;;;;;1.93;100.00;100136.59;4992504;28;20527;-79
2023/01/20 09:00:02;;;;;;;49.07;25.43;;;;;;;1.93;100.00;100136.59;4992281;28;20442;-77
2023/01/20 09:02:28;;;;;;;49.87;26.87;;;;;;;1.95;100.00;100134.72;4988197;28;20468;-77
2023/01/20 09:04:55;;;;;;;55.33;27.17;;;;;;;2.03;100.00;100131.63;4991191;28;20468;-79
2023/01/20 09:07:22;;;;;;;48.03;26.87;;;;;;;2.13;100.00;100138.06;4994522;28;20483;-77
2023/01/20 09:09:48;;;;;;;47.10;25.80;;;;;;;2.28;100.00;100133.69;4990130;28;20500;-77
2023/01/20 09:12:15;;;;;;;51.93;28.27;;;;;;;2.20;100.00;100134.13;4981615;28;20516;-78
2023/01/20 09:14:41;;;;;;;48.27;26.90;;;;;;;2.31;100.00;100138.78;4982444;28;20511;-79
2023/01/20 09:17:09;;;;;;;46.50;25.50;;;;;;;2.21;100.00;100137.63;4997187;28;20480;-79
2023/01/20 09:19:36;;;;;;;44.50;26.37;;;;;;;2.29;100.00;100139.81;5001903;28;20459;-76
2023/01/20 09:22:03;;;;;;;43.80;24.00;;;;;;;2.59;100.00;100137.16;5000921;28;20503;-77
2023/01/20 09:24:30;;;;;;;51.00;27.30;;;;;;;2.88;100.00;100139.78;5001334;28;20471;-79
2023/01/20 09:26:57;;;;;;;47.70;26.33;;;;;;;2.93;100.00;100146.47;5000904;28;20535;-78
2023/01/20 09:29:24;;;;;;;44.57;27.10;;;;;;;3.00;100.00;100145.19;5002482;28;20448;-78
2023/01/20 09:31:52;;;;;;;38.47;24.00;;;;;;;2.93;100.00;100140.34;5000341;28;20479;-76
2023/01/20 09:34:23;;;;;;;42.27;23.80;;;;;;;3.68;100.00;100147.97;5001610;28;20969;-80
2023/01/20 09:36:51;;;;;;;37.77;23.10;;;;;;;3.37;100.00;100150.78;5001249;28;20476;-77
2023/01/20 09:44:57;;;;;;;48.40;22.87;;;;;;;3.25;100.00;100148.09;5001361;28;20454;-78
2023/01/20 09:47:28;;;;;;;39.83;23.60;;;;;;;3.45;100.00;100158.22;5000244;28;20545;-78
2023/01/20 09:53:03;;;;;;;39.77;23.60;;;;;;;3.77;99.38;100155.34;4983208;28;20536;-79
2023/01/20 09:55:39;;;;;;;38.03;20.53;;;;;;;4.41;96.41;100163.47;5001701;28;20543;-79
2023/01/20 09:58:14;;;;;;;34.93;22.50;;;;;;;4.57;93.74;100165.91;5002278;28;20517;-77
2023/01/20 10:00:41;;;;;;;36.53;21.37;;;;;;;5.18;88.37;100166.09;5001211;28;20796;-78
2023/01/20 10:03:13;;;;;;;29.20;19.60;;;;;;;4.86;90.04;100173.63;4999282;28;20467;-78
2023/01/20 10:05:42;;;;;;;35.60;17.57;;;;;;;5.34;88.28;100179.13;5000716;28;20482;-76
2023/01/20 10:08:13;;;;;;;32.23;18.33;;;;;;;4.83;88.82;100174.72;5001564;28;20463;-78
2023/01/20 10:10:45;;;;;;;28.60;18.70;;;;;;;4.78;88.92;100176.84;5000822;28;20484;-79
2023/01/20 10:13:14;;;;;;;31.83;18.30;;;;;;;4.70;90.45;100173.84;4988066;28;20460;-78
2023/01/20 10:15:44;;;;;;;27.07;17.67;;;;;;;4.62;90.68;100181.50;4980844;28;21022;-77
2023/01/20 10:18:15;;;;;;;26.87;16.80;;;;;;;4.50;90.66;100177.88;4982476;28;20537;-77
2023/01/20 10:20:46;;;;;;;24.60;17.10;;;;;;;4.22;92.31;100184.13;4982167;28;20472;-77
2023/01/20 10:23:18;;;;;;;24.07;16.30;;;;;;;3.73;93.74;100175.84;4988595;28;20492;-75
2023/01/20 10:25:48;;;;;;;26.87;18.43;;;;;;;4.24;93.18;100177.81;5000659;28;20508;-73
2023/01/20 10:28:16;;;;;;;24.60;14.90;;;;;;;3.81;91.72;100174.50;4984219;28;20468;-79
2023/01/20 10:30:43;;;;;;;25.33;16.53;;;;;;;4.64;88.65;100190.19;4997967;28;20476;-77
2023/01/20 10:33:13;;;;;;;27.20;16.13;;;;;;;4.97;87.20;100184.34;5001410;28;20468;-76
2023/01/20 10:35:43;;;;;;;29.40;16.47;;;;;;;4.33;87.50;100177.19;5000552;28;20475;-77
2023/01/20 10:38:19;;;;;;;26.50;15.47;;;;;;;4.06;90.30;100179.00;5002512;28;20479;-78
2023/01/20 10:40:51;;;;;;;24.30;15.73;;;;;;;4.32;87.72;100174.63;5003803;28;20467;-77
2023/01/20 10:43:18;;;;;;;28.00;16.83;;;;;;;4.42;88.76;100175.72;5005039;28;20452;-78
2023/01/20 10:46:10;;;;;;;23.83;15.93;;;;;;;4.19;87.84;100182.56;5003701;28;20479;-77
2023/01/20 10:48:52;;;;;;;23.80;14.73;;;;;;;3.85;88.58;100182.09;5004328;28;20452;-79
2023/01/20 10:51:23;;;;;;;19.40;13.40;;;;;;;3.58;91.40;100187.38;5003552;28;20487;-78
2023/01/20 10:54:00;;;;;;;23.63;16.20;;;;;;;3.82;91.41;100187.63;5004912;28;20483;-78
2023/01/20 10:56:40;;;;;;;23.03;14.50;;;;;;;3.74;91.25;100187.25;5004479;28;20514;-79
2023/01/20 10:59:13;;;;;;;21.63;13.03;;;;;;;3.65;90.84;100180.75;5005220;28;20503;-77
2023/01/20 11:01:41;;;;;;;22.30;12.37;;;;;;;3.54;92.06;100185.88;5002994;28;21074;-79
2023/01/20 11:04:15;;;;;;;23.00;13.80;;;;;;;3.88;90.75;100187.19;5005587;28;20525;-77
2023/01/20 11:06:42;;;;;;;19.13;12.97;;;;;;;4.06;90.45;100194.88;5002956;28;20483;-79
2023/01/20 11:09:20;;;;;;;22.77;13.33;;;;;;;3.71;90.03;100190.94;5003027;28;20857;-78
2023/01/20 11:11:47;;;;;;;24.03;13.57;;;;;;;4.08;90.14;100193.84;5002960;28;21011;-78
2023/01/20 11:14:16;;;;;;;23.97;15.17;;;;;;;4.51;88.42;100193.66;5003256;28;20479;-78
2023/01/20 11:16:46;;;;;;;19.10;11.83;;;;;;;4.48;87.63;100196.50;4992132;28;21095;-79
2023/01/20 11:19:13;;;;;;;18.47;12.73;;;;;;;4.55;88.11;100196.94;5003402;28;20535;-79
2023/01/20 11:21:40;;;;;;;21.00;12.23;;;;;;;4.53;85.34;100199.69;5001637;28;20479;-78
2023/01/20 11:24:35;;;;;;;20.20;12.17;;;;;;;4.61;86.42;100201.81;5003702;28;20725;-78
2023/01/20 11:27:03;;;;;;;21.20;13.83;;;;;;;5.28;82.03;100212.22;5003293;28;20515;-78
2023/01/20 11:29:30;;;;;;;20.63;13.03;;;;;;;4.93;83.92;100208.50;5003968;28;20463;-78